sensor_id;sensor_type;location;lat;lon;timestamp;temperature;humidity
32839;DHT22;19182;41.820;12.808;2023-12-14T00:00:28;12.40;99.90
32839;DHT22;19182;41.820;12.808;2023-12-14T00:02:55;12.30;99.90
32839;DHT22;19182;41.820;12.808;2023-12-14T00:05:20;12.30;99.90
32839;DHT22;19182;41.820;12.808;2023-12-14T00:07:46;12.20;99.90
32839;DHT22;19182;41.820;12.808;2023-12-14T00:10:12;12.20;99.90
32839;DHT22;19182;41.820;12.808;2023-12-14T00:12:39;12.10;99.90
32839;DHT22;19182;41.820;12.808;2023-12-14T00:15:06;12.00;99.90
32839;DHT22;19182;41.820;12.808;2023-12-14T00:17:31;12.00;99.90
32839;DHT22;19182;41.820;12.808;2023-12-14T00:19:58;12.00;99.90
32839;DHT22;19182;41.820;12.808;2023-12-14T00:22:25;11.90;99.90
32839;DHT22;19182;41.820;12.808;2023-12-14T00:24:52;11.90;99.90
32839;DHT22;19182;41.820;12.808;2023-12-14T00:27:18;11.90;99.90
32839;DHT22;19182;41.820;12.808;2023-12-14T00:29:44;11.80;99.90
32839;DHT22;19182;41.820;12.808;2023-12-14T00:32:12;11.80;99.90
32839;DHT22;19182;41.820;12.808;2023-12-14T00:34:39;11.80;99.90
32839;DHT22;19182;41.820;12.808;2023-12-14T00:37:05;11.70;99.90
32839;DHT22;19182;41.820;12.808;2023-12-14T00:39:32;11.70;99.90
32839;DHT22;19182;41.820;12.808;2023-12-14T00:41:58;11.70;99.90
32839;DHT22;19182;41.820;12.808;2023-12-14T00:44:25;11.70;99.90
32839;DHT22;19182;41.820;12.808;2023-12-14T00:46:52;11.70;99.90
32839;DHT22;19182;41.820;12.808;2023-12-14T00:49:19;11.60;99.90
32839;DHT22;19182;41.820;12.808;2023-12-14T00:51:45;11.60;99.90
32839;DHT22;19182;41.820;12.808;2023-12-14T00:54:12;11.60;99.90
32839;DHT22;19182;41.820;12.808;2023-12-14T00:56:38;11.60;99.90
32839;DHT22;19182;41.820;12.808;2023-12-14T00:59:04;11.50;99.90
32839;DHT22;19182;41.820;12.808;2023-12-14T01:01:30;11.40;99.90
32839;DHT22;19182;41.820;12.808;2023-12-14T01:03:56;11.50;99.90
32839;DHT22;19182;41.820;12.808;2023-12-14T01:06:21;11.50;99.90
32839;DHT22;19182;41.820;12.808;2023-12-14T01:08:48;11.50;99.90
32839;DHT22;19182;41.820;12.808;2023-12-14T01:11:14;11.50;99.90
32839;DHT22;19182;41.820;12.808;2023-12-14T01:13:41;11.50;99.90
32839;DHT22;19182;41.820;12.808;2023-12-14T01:16:07;11.60;99.90
32839;DHT22;19182;41.820;12.808;2023-12-14T01:18:33;11.60;99.90
32839;DHT22;19182;41.820;12.808;2023-12-14T01:20:59;11.70;99.90
32839;DHT22;19182;41.820;12.808;2023-12-14T01:23:25;11.70;99.90
32839;DHT22;19182;41.820;12.808;2023-12-14T01:25:52;11.80;99.90
32839;DHT22;19182;41.820;12.808;2023-12-14T01:28:18;11.80;99.90
32839;DHT22;19182;41.820;12.808;2023-12-14T01:30:45;11.80;99.90
32839;DHT22;19182;41.820;12.808;2023-12-14T01:33:11;11.80;99.90
32839;DHT22;19182;41.820;12.808;2023-12-14T01:35:37;11.80;99.90
32839;DHT22;19182;41.820;12.808;2023-12-14T01:38:04;11.80;99.90
32839;DHT22;19182;41.820;12.808;2023-12-14T01:40:30;11.80;99.90
32839;DHT22;19182;41.820;12.808;2023-12-14T01:43:10;11.80;99.90
32839;DHT22;19182;41.820;12.808;2023-12-14T01:45:37;11.90;99.90
32839;DHT22;19182;41.820;12.808;2023-12-14T01:48:05;11.80;99.90
32839;DHT22;19182;41.820;12.808;2023-12-14T01:50:31;11.90;99.90
32839;DHT22;19182;41.820;12.808;2023-12-14T01:52:58;11.80;99.90
32839;DHT22;19182;41.820;12.808;2023-12-14T01:55:24;11.80;99.90
32839;DHT22;19182;41.820;12.808;2023-12-14T01:57:52;11.80;99.90
32839;DHT22;19182;41.820;12.808;2023-12-14T02:02:57;11.70;99.90
32839;DHT22;19182;41.820;12.808;2023-12-14T02:05:24;11.70;99.90
32839;DHT22;19182;41.820;12.808;2023-12-14T02:07:50;11.70;99.90
32839;DHT22;19182;41.820;12.808;2023-12-14T02:10:15;11.70;99.90
32839;DHT22;19182;41.820;12.808;2023-12-14T02:12:41;11.70;99.90
32839;DHT22;19182;41.820;12.808;2023-12-14T02:15:08;11.70;99.90
32839;DHT22;19182;41.820;12.808;2023-12-14T02:17:34;11.60;99.90
32839;DHT22;19182;41.820;12.808;2023-12-14T02:20:00;11.60;99.90
32839;DHT22;19182;41.820;12.808;2023-12-14T02:22:33;11.60;99.90
32839;DHT22;19182;41.820;12.808;2023-12-14T02:25:00;11.60;99.90
32839;DHT22;19182;41.820;12.808;2023-12-14T02:27:27;11.50;99.90
32839;DHT22;19182;41.820;12.808;2023-12-14T02:29:53;11.50;99.90
32839;DHT22;19182;41.820;12.808;2023-12-14T02:32:19;11.50;99.90
32839;DHT22;19182;41.820;12.808;2023-12-14T02:34:46;11.50;99.90
32839;DHT22;19182;41.820;12.808;2023-12-14T02:37:13;11.50;99.90
32839;DHT22;19182;41.820;12.808;2023-12-14T02:39:38;11.60;99.90
32839;DHT22;19182;41.820;12.808;2023-12-14T02:42:06;11.60;99.90
32839;DHT22;19182;41.820;12.808;2023-12-14T02:44:32;11.60;99.90
32839;DHT22;19182;41.820;12.808;2023-12-14T02:46:58;11.60;99.90
32839;DHT22;19182;41.820;12.808;2023-12-14T02:49:24;11.60;99.90
32839;DHT22;19182;41.820;12.808;2023-12-14T02:51:49;11.60;99.90
32839;DHT22;19182;41.820;12.808;2023-12-14T02:54:16;11.60;99.90
32839;DHT22;19182;41.820;12.808;2023-12-14T02:56:42;11.60;99.90
32839;DHT22;19182;41.820;12.808;2023-12-14T02:59:09;11.60;99.90
32839;DHT22;19182;41.820;12.808;2023-12-14T03:01:36;11.60;99.90
32839;DHT22;19182;41.820;12.808;2023-12-14T03:04:01;11.60;99.90
32839;DHT22;19182;41.820;12.808;2023-12-14T03:06:27;11.50;99.90
32839;DHT22;19182;41.820;12.808;2023-12-14T03:08:54;11.50;99.90
32839;DHT22;19182;41.820;12.808;2023-12-14T03:11:23;11.60;99.90
32839;DHT22;19182;41.820;12.808;2023-12-14T03:13:49;11.60;99.90
32839;DHT22;19182;41.820;12.808;2023-12-14T03:16:20;11.60;99.90
32839;DHT22;19182;41.820;12.808;2023-12-14T03:18:46;11.60;99.90
32839;DHT22;19182;41.820;12.808;2023-12-14T03:21:15;11.60;99.90
32839;DHT22;19182;41.820;12.808;2023-12-14T03:23:42;11.70;99.90
32839;DHT22;19182;41.820;12.808;2023-12-14T03:26:08;11.70;99.90
32839;DHT22;19182;41.820;12.808;2023-12-14T03:28:37;11.70;99.90
32839;DHT22;19182;41.820;12.808;2023-12-14T03:31:03;11.70;99.90
32839;DHT22;19182;41.820;12.808;2023-12-14T03:33:30;11.60;99.90
32839;DHT22;19182;41.820;12.808;2023-12-14T03:35:57;11.60;99.90
32839;DHT22;19182;41.820;12.808;2023-12-14T03:38:25;11.60;99.90
32839;DHT22;19182;41.820;12.808;2023-12-14T03:40:51;11.50;99.90
32839;DHT22;19182;41.820;12.808;2023-12-14T03:43:18;11.50;99.90
32839;DHT22;19182;41.820;12.808;2023-12-14T03:45:43;11.50;99.90
32839;DHT22;19182;41.820;12.808;2023-12-14T03:48:12;11.50;99.90
32839;DHT22;19182;41.820;12.808;2023-12-14T03:50:38;11.50;99.90
32839;DHT22;19182;41.820;12.808;2023-12-14T03:53:05;11.50;99.90
32839;DHT22;19182;41.820;12.808;2023-12-14T03:55:32;11.60;99.90
32839;DHT22;19182;41.820;12.808;2023-12-14T03:57:58;11.60;99.90
32839;DHT22;19182;41.820;12.808;2023-12-14T04:00:25;11.60;99.90
32839;DHT22;19182;41.820;12.808;2023-12-14T04:02:51;11.70;99.90
32839;DHT22;19182;41.820;12.808;2023-12-14T04:05:17;11.70;99.90
32839;DHT22;19182;41.820;12.808;2023-12-14T04:07:43;11.70;99.90
32839;DHT22;19182;41.820;12.808;2023-12-14T04:10:10;11.70;99.90
32839;DHT22;19182;41.820;12.808;2023-12-14T04:12:37;11.60;99.90
32839;DHT22;19182;41.820;12.808;2023-12-14T04:15:06;11.50;99.90
32839;DHT22;19182;41.820;12.808;2023-12-14T04:17:32;11.50;99.90
32839;DHT22;19182;41.820;12.808;2023-12-14T04:19:58;11.50;99.90
32839;DHT22;19182;41.820;12.808;2023-12-14T04:22:24;11.50;99.90
32839;DHT22;19182;41.820;12.808;2023-12-14T04:24:54;11.60;99.90
32839;DHT22;19182;41.820;12.808;2023-12-14T04:27:21;11.60;99.90
32839;DHT22;19182;41.820;12.808;2023-12-14T04:29:49;11.60;99.90
32839;DHT22;19182;41.820;12.808;2023-12-14T04:32:16;11.60;99.90
32839;DHT22;19182;41.820;12.808;2023-12-14T04:34:43;11.50;99.90
32839;DHT22;19182;41.820;12.808;2023-12-14T04:37:10;11.60;99.90
32839;DHT22;19182;41.820;12.808;2023-12-14T04:39:37;11.60;99.90
32839;DHT22;19182;41.820;12.808;2023-12-14T04:42:02;11.60;99.90
32839;DHT22;19182;41.820;12.808;2023-12-14T04:44:30;11.70;99.90
32839;DHT22;19182;41.820;12.808;2023-12-14T04:46:57;11.60;99.90
32839;DHT22;19182;41.820;12.808;2023-12-14T04:49:24;11.50;99.90
32839;DHT22;19182;41.820;12.808;2023-12-14T04:51:49;11.60;99.90
32839;DHT22;19182;41.820;12.808;2023-12-14T04:54:16;11.60;99.90
32839;DHT22;19182;41.820;12.808;2023-12-14T04:56:45;11.60;99.90
32839;DHT22;19182;41.820;12.808;2023-12-14T04:59:11;11.60;99.90
32839;DHT22;19182;41.820;12.808;2023-12-14T05:01:38;11.60;99.90
32839;DHT22;19182;41.820;12.808;2023-12-14T05:04:04;11.50;99.90
32839;DHT22;19182;41.820;12.808;2023-12-14T05:06:30;11.50;99.90
32839;DHT22;19182;41.820;12.808;2023-12-14T05:08:58;11.50;99.90
32839;DHT22;19182;41.820;12.808;2023-12-14T05:11:24;11.50;99.90
32839;DHT22;19182;41.820;12.808;2023-12-14T05:13:49;11.40;99.90
32839;DHT22;19182;41.820;12.808;2023-12-14T05:16:16;11.40;99.90
32839;DHT22;19182;41.820;12.808;2023-12-14T05:18:44;11.30;99.90
32839;DHT22;19182;41.820;12.808;2023-12-14T05:21:15;11.30;99.90
32839;DHT22;19182;41.820;12.808;2023-12-14T05:23:42;11.30;99.90
32839;DHT22;19182;41.820;12.808;2023-12-14T05:26:09;11.20;99.90
32839;DHT22;19182;41.820;12.808;2023-12-14T05:28:36;11.10;99.90
32839;DHT22;19182;41.820;12.808;2023-12-14T05:31:04;11.10;99.90
32839;DHT22;19182;41.820;12.808;2023-12-14T05:33:30;11.20;99.90
32839;DHT22;19182;41.820;12.808;2023-12-14T05:35:57;11.10;99.90
32839;DHT22;19182;41.820;12.808;2023-12-14T05:38:22;11.10;99.90
32839;DHT22;19182;41.820;12.808;2023-12-14T05:40:48;11.10;99.90
32839;DHT22;19182;41.820;12.808;2023-12-14T05:43:14;11.10;99.90
32839;DHT22;19182;41.820;12.808;2023-12-14T05:45:41;11.20;99.90
32839;DHT22;19182;41.820;12.808;2023-12-14T05:48:06;11.20;99.90
32839;DHT22;19182;41.820;12.808;2023-12-14T05:50:32;11.20;99.90
32839;DHT22;19182;41.820;12.808;2023-12-14T05:52:59;11.20;99.90
32839;DHT22;19182;41.820;12.808;2023-12-14T05:55:26;11.10;99.90
32839;DHT22;19182;41.820;12.808;2023-12-14T05:57:53;11.10;99.90
32839;DHT22;19182;41.820;12.808;2023-12-14T06:00:21;11.10;99.90
32839;DHT22;19182;41.820;12.808;2023-12-14T06:02:48;11.10;99.90
32839;DHT22;19182;41.820;12.808;2023-12-14T06:05:15;11.10;99.90
32839;DHT22;19182;41.820;12.808;2023-12-14T06:07:40;11.00;99.90
32839;DHT22;19182;41.820;12.808;2023-12-14T06:10:07;11.00;99.90
32839;DHT22;19182;41.820;12.808;2023-12-14T06:12:33;10.90;99.90
32839;DHT22;19182;41.820;12.808;2023-12-14T06:14:59;10.90;99.90
32839;DHT22;19182;41.820;12.808;2023-12-14T06:17:26;11.00;99.90
32839;DHT22;19182;41.820;12.808;2023-12-14T06:19:54;11.00;99.90
32839;DHT22;19182;41.820;12.808;2023-12-14T06:22:20;11.00;99.90
32839;DHT22;19182;41.820;12.808;2023-12-14T06:24:47;11.00;99.90
32839;DHT22;19182;41.820;12.808;2023-12-14T06:27:13;11.00;99.90
32839;DHT22;19182;41.820;12.808;2023-12-14T06:29:40;11.10;99.90
32839;DHT22;19182;41.820;12.808;2023-12-14T06:32:07;11.10;99.90
32839;DHT22;19182;41.820;12.808;2023-12-14T06:34:33;11.20;99.90
32839;DHT22;19182;41.820;12.808;2023-12-14T06:37:00;11.10;99.90
32839;DHT22;19182;41.820;12.808;2023-12-14T06:39:29;11.00;99.90
32839;DHT22;19182;41.820;12.808;2023-12-14T06:41:56;11.00;99.90
32839;DHT22;19182;41.820;12.808;2023-12-14T06:44:22;11.00;99.90
32839;DHT22;19182;41.820;12.808;2023-12-14T06:46:47;10.90;99.90
32839;DHT22;19182;41.820;12.808;2023-12-14T06:49:13;10.90;99.90
32839;DHT22;19182;41.820;12.808;2023-12-14T06:51:39;10.90;99.90
32839;DHT22;19182;41.820;12.808;2023-12-14T06:54:05;10.80;99.90
32839;DHT22;19182;41.820;12.808;2023-12-14T06:56:31;10.90;99.90
32839;DHT22;19182;41.820;12.808;2023-12-14T06:58:58;10.90;99.90
32839;DHT22;19182;41.820;12.808;2023-12-14T07:01:25;10.90;99.90
32839;DHT22;19182;41.820;12.808;2023-12-14T07:03:51;11.00;99.90
32839;DHT22;19182;41.820;12.808;2023-12-14T07:06:18;11.00;99.90
32839;DHT22;19182;41.820;12.808;2023-12-14T07:08:45;11.20;99.90
32839;DHT22;19182;41.820;12.808;2023-12-14T07:11:13;11.30;99.90
32839;DHT22;19182;41.820;12.808;2023-12-14T07:13:38;11.30;99.90
32839;DHT22;19182;41.820;12.808;2023-12-14T07:16:07;11.30;99.90
32839;DHT22;19182;41.820;12.808;2023-12-14T07:18:34;11.20;99.90
32839;DHT22;19182;41.820;12.808;2023-12-14T07:21:01;11.20;99.90
32839;DHT22;19182;41.820;12.808;2023-12-14T07:23:27;11.30;99.90
32839;DHT22;19182;41.820;12.808;2023-12-14T07:25:54;11.30;99.90
32839;DHT22;19182;41.820;12.808;2023-12-14T07:28:21;11.40;99.90
32839;DHT22;19182;41.820;12.808;2023-12-14T07:30:48;11.40;99.90
32839;DHT22;19182;41.820;12.808;2023-12-14T07:33:15;11.50;99.90
32839;DHT22;19182;41.820;12.808;2023-12-14T07:35:41;11.60;99.90
32839;DHT22;19182;41.820;12.808;2023-12-14T07:38:09;11.60;99.90
32839;DHT22;19182;41.820;12.808;2023-12-14T07:40:36;11.50;99.90
32839;DHT22;19182;41.820;12.808;2023-12-14T07:43:02;11.50;99.90
32839;DHT22;19182;41.820;12.808;2023-12-14T07:45:30;11.60;99.90
32839;DHT22;19182;41.820;12.808;2023-12-14T07:47:56;11.70;99.90
32839;DHT22;19182;41.820;12.808;2023-12-14T07:50:23;11.80;99.90
32839;DHT22;19182;41.820;12.808;2023-12-14T07:52:50;11.90;99.90
32839;DHT22;19182;41.820;12.808;2023-12-14T07:55:16;11.90;99.90
32839;DHT22;19182;41.820;12.808;2023-12-14T07:57:42;12.00;99.90
32839;DHT22;19182;41.820;12.808;2023-12-14T08:00:09;11.90;99.90
32839;DHT22;19182;41.820;12.808;2023-12-14T08:02:36;12.00;99.90
32839;DHT22;19182;41.820;12.808;2023-12-14T08:05:03;12.10;99.90
32839;DHT22;19182;41.820;12.808;2023-12-14T08:07:29;12.10;99.90
32839;DHT22;19182;41.820;12.808;2023-12-14T08:09:55;10.00;99.90
32839;DHT22;19182;41.820;12.808;2023-12-14T08:12:23;12.30;99.90
32839;DHT22;19182;41.820;12.808;2023-12-14T08:14:49;12.30;99.90
32839;DHT22;19182;41.820;12.808;2023-12-14T08:17:14;12.50;99.90
32839;DHT22;19182;41.820;12.808;2023-12-14T08:19:40;12.50;99.90
32839;DHT22;19182;41.820;12.808;2023-12-14T08:22:06;12.50;99.90
32839;DHT22;19182;41.820;12.808;2023-12-14T08:24:32;12.60;99.90
32839;DHT22;19182;41.820;12.808;2023-12-14T08:27:00;12.60;99.90
32839;DHT22;19182;41.820;12.808;2023-12-14T08:29:25;12.60;99.90
32839;DHT22;19182;41.820;12.808;2023-12-14T08:31:51;12.60;99.90
32839;DHT22;19182;41.820;12.808;2023-12-14T08:34:18;12.60;99.90
32839;DHT22;19182;41.820;12.808;2023-12-14T08:36:43;12.60;99.90
32839;DHT22;19182;41.820;12.808;2023-12-14T08:39:09;12.70;99.90
32839;DHT22;19182;41.820;12.808;2023-12-14T08:41:35;12.70;99.90
32839;DHT22;19182;41.820;12.808;2023-12-14T08:44:01;12.60;99.90
32839;DHT22;19182;41.820;12.808;2023-12-14T08:46:27;12.50;99.90
32839;DHT22;19182;41.820;12.808;2023-12-14T08:48:53;12.50;99.90
32839;DHT22;19182;41.820;12.808;2023-12-14T08:51:19;12.50;99.90
32839;DHT22;19182;41.820;12.808;2023-12-14T08:53:47;12.50;99.90
32839;DHT22;19182;41.820;12.808;2023-12-14T08:56:13;12.50;99.90
32839;DHT22;19182;41.820;12.808;2023-12-14T08:58:39;12.40;99.90
32839;DHT22;19182;41.820;12.808;2023-12-14T09:01:05;12.40;99.90
32839;DHT22;19182;41.820;12.808;2023-12-14T09:03:31;12.50;99.90
32839;DHT22;19182;41.820;12.808;2023-12-14T09:05:57;12.50;99.90
32839;DHT22;19182;41.820;12.808;2023-12-14T09:08:24;12.50;99.90
32839;DHT22;19182;41.820;12.808;2023-12-14T09:10:49;12.60;99.90
32839;DHT22;19182;41.820;12.808;2023-12-14T09:13:15;12.80;99.90
32839;DHT22;19182;41.820;12.808;2023-12-14T09:15:40;13.00;99.90
32839;DHT22;19182;41.820;12.808;2023-12-14T09:18:06;13.40;99.90
32839;DHT22;19182;41.820;12.808;2023-12-14T09:20:32;14.40;99.90
32839;DHT22;19182;41.820;12.808;2023-12-14T09:23:01;14.70;99.90
32839;DHT22;19182;41.820;12.808;2023-12-14T09:25:27;14.30;99.90
32839;DHT22;19182;41.820;12.808;2023-12-14T09:27:53;14.20;99.90
32839;DHT22;19182;41.820;12.808;2023-12-14T09:30:19;14.10;99.90
32839;DHT22;19182;41.820;12.808;2023-12-14T09:32:45;13.80;99.90
32839;DHT22;19182;41.820;12.808;2023-12-14T09:35:11;13.80;99.90
32839;DHT22;19182;41.820;12.808;2023-12-14T09:37:37;13.70;99.90
32839;DHT22;19182;41.820;12.808;2023-12-14T09:40:03;13.40;99.90
32839;DHT22;19182;41.820;12.808;2023-12-14T09:42:36;13.40;99.90
32839;DHT22;19182;41.820;12.808;2023-12-14T09:45:03;13.60;99.90
32839;DHT22;19182;41.820;12.808;2023-12-14T09:47:32;14.00;99.90
32839;DHT22;19182;41.820;12.808;2023-12-14T09:49:59;14.20;99.90
32839;DHT22;19182;41.820;12.808;2023-12-14T09:52:25;14.00;99.90
32839;DHT22;19182;41.820;12.808;2023-12-14T09:54:51;14.80;99.90
32839;DHT22;19182;41.820;12.808;2023-12-14T09:57:21;16.30;99.90
32839;DHT22;19182;41.820;12.808;2023-12-14T09:59:55;16.60;99.90
32839;DHT22;19182;41.820;12.808;2023-12-14T10:02:26;16.20;99.90
32839;DHT22;19182;41.820;12.808;2023-12-14T10:04:52;15.80;99.90
32839;DHT22;19182;41.820;12.808;2023-12-14T10:07:19;14.40;99.90
32839;DHT22;19182;41.820;12.808;2023-12-14T10:09:45;14.90;99.90
32839;DHT22;19182;41.820;12.808;2023-12-14T10:12:12;14.70;99.90
32839;DHT22;19182;41.820;12.808;2023-12-14T10:14:38;14.70;99.90
32839;DHT22;19182;41.820;12.808;2023-12-14T10:19:45;14.10;99.90
32839;DHT22;19182;41.820;12.808;2023-12-14T10:22:15;13.60;99.90
32839;DHT22;19182;41.820;12.808;2023-12-14T10:24:43;14.10;99.90
32839;DHT22;19182;41.820;12.808;2023-12-14T10:27:11;14.10;99.90
32839;DHT22;19182;41.820;12.808;2023-12-14T10:29:38;14.40;99.90
32839;DHT22;19182;41.820;12.808;2023-12-14T10:32:05;14.30;99.90
32839;DHT22;19182;41.820;12.808;2023-12-14T10:34:35;14.40;99.90
32839;DHT22;19182;41.820;12.808;2023-12-14T10:37:06;15.70;99.90
32839;DHT22;19182;41.820;12.808;2023-12-14T10:39:35;17.90;99.90
32839;DHT22;19182;41.820;12.808;2023-12-14T10:42:03;19.50;99.90
32839;DHT22;19182;41.820;12.808;2023-12-14T10:44:30;20.20;99.90
32839;DHT22;19182;41.820;12.808;2023-12-14T10:46:59;19.50;99.90
32839;DHT22;19182;41.820;12.808;2023-12-14T10:49:27;18.70;99.90
32839;DHT22;19182;41.820;12.808;2023-12-14T10:51:56;18.40;99.90
32839;DHT22;19182;41.820;12.808;2023-12-14T10:54:30;20.20;99.90
32839;DHT22;19182;41.820;12.808;2023-12-14T10:56:57;20.60;99.90
32839;DHT22;19182;41.820;12.808;2023-12-14T10:59:24;21.40;99.90
32839;DHT22;19182;41.820;12.808;2023-12-14T11:01:55;22.60;99.90
32839;DHT22;19182;41.820;12.808;2023-12-14T11:04:27;24.50;99.90
32839;DHT22;19182;41.820;12.808;2023-12-14T11:06:55;24.00;99.90
32839;DHT22;19182;41.820;12.808;2023-12-14T11:09:23;23.90;99.90
32839;DHT22;19182;41.820;12.808;2023-12-14T11:11:56;21.90;99.90
32839;DHT22;19182;41.820;12.808;2023-12-14T11:14:27;22.40;99.90
32839;DHT22;19182;41.820;12.808;2023-12-14T11:16:55;24.10;99.90
32839;DHT22;19182;41.820;12.808;2023-12-14T11:24:23;25.30;99.90
32839;DHT22;19182;41.820;12.808;2023-12-14T11:26:50;24.70;99.90
32839;DHT22;19182;41.820;12.808;2023-12-14T11:29:19;24.40;99.90
32839;DHT22;19182;41.820;12.808;2023-12-14T11:31:47;22.20;99.90
32839;DHT22;19182;41.820;12.808;2023-12-14T11:34:15;20.80;99.90
32839;DHT22;19182;41.820;12.808;2023-12-14T11:36:41;20.50;99.90
32839;DHT22;19182;41.820;12.808;2023-12-14T11:39:11;20.70;99.90
32839;DHT22;19182;41.820;12.808;2023-12-14T11:41:38;19.90;99.90
32839;DHT22;19182;41.820;12.808;2023-12-14T11:44:06;18.30;99.90
32839;DHT22;19182;41.820;12.808;2023-12-14T11:46:32;17.80;99.90
32839;DHT22;19182;41.820;12.808;2023-12-14T11:48:59;18.60;99.90
32839;DHT22;19182;41.820;12.808;2023-12-14T11:51:28;21.00;99.90
32839;DHT22;19182;41.820;12.808;2023-12-14T11:53:57;23.10;99.90
32839;DHT22;19182;41.820;12.808;2023-12-14T11:56:25;25.10;99.90
32839;DHT22;19182;41.820;12.808;2023-12-14T11:58:52;25.70;99.90
32839;DHT22;19182;41.820;12.808;2023-12-14T12:01:20;25.50;99.90
32839;DHT22;19182;41.820;12.808;2023-12-14T12:03:51;25.30;99.90
32839;DHT22;19182;41.820;12.808;2023-12-14T12:06:25;23.50;99.90
32839;DHT22;19182;41.820;12.808;2023-12-14T12:08:54;20.80;99.90
32839;DHT22;19182;41.820;12.808;2023-12-14T12:11:21;19.60;99.90
32839;DHT22;19182;41.820;12.808;2023-12-14T12:14:04;20.90;99.90
32839;DHT22;19182;41.820;12.808;2023-12-14T12:16:30;22.70;99.90
32839;DHT22;19182;41.820;12.808;2023-12-14T12:18:57;24.40;99.90
32839;DHT22;19182;41.820;12.808;2023-12-14T12:21:22;24.10;99.90
32839;DHT22;19182;41.820;12.808;2023-12-14T12:23:48;24.60;99.90
32839;DHT22;19182;41.820;12.808;2023-12-14T12:26:14;24.90;99.90
32839;DHT22;19182;41.820;12.808;2023-12-14T12:28:40;25.70;99.90
32839;DHT22;19182;41.820;12.808;2023-12-14T12:31:06;25.50;99.90
32839;DHT22;19182;41.820;12.808;2023-12-14T12:33:33;26.00;99.90
32839;DHT22;19182;41.820;12.808;2023-12-14T12:36:03;26.10;99.90
32839;DHT22;19182;41.820;12.808;2023-12-14T12:38:29;24.30;99.90
32839;DHT22;19182;41.820;12.808;2023-12-14T12:40:55;22.20;99.90
32839;DHT22;19182;41.820;12.808;2023-12-14T12:43:21;21.10;99.90
32839;DHT22;19182;41.820;12.808;2023-12-14T12:45:49;21.10;99.90
32839;DHT22;19182;41.820;12.808;2023-12-14T12:48:14;21.10;99.90
32839;DHT22;19182;41.820;12.808;2023-12-14T12:50:42;22.00;99.90
32839;DHT22;19182;41.820;12.808;2023-12-14T12:53:07;21.80;99.90
32839;DHT22;19182;41.820;12.808;2023-12-14T12:55:33;21.20;99.90
32839;DHT22;19182;41.820;12.808;2023-12-14T12:57:59;20.10;99.90
32839;DHT22;19182;41.820;12.808;2023-12-14T13:00:31;19.10;99.90
32839;DHT22;19182;41.820;12.808;2023-12-14T13:02:58;18.60;99.90
32839;DHT22;19182;41.820;12.808;2023-12-14T13:05:26;18.10;99.90
32839;DHT22;19182;41.820;12.808;2023-12-14T13:07:52;17.70;99.90
32839;DHT22;19182;41.820;12.808;2023-12-14T13:10:19;17.80;99.90
32839;DHT22;19182;41.820;12.808;2023-12-14T13:12:48;17.90;99.90
32839;DHT22;19182;41.820;12.808;2023-12-14T13:15:15;17.60;99.90
32839;DHT22;19182;41.820;12.808;2023-12-14T13:17:41;17.60;99.90
32839;DHT22;19182;41.820;12.808;2023-12-14T13:20:07;17.20;99.90
32839;DHT22;19182;41.820;12.808;2023-12-14T13:22:35;16.50;99.90
32839;DHT22;19182;41.820;12.808;2023-12-14T13:25:01;16.00;99.90
32839;DHT22;19182;41.820;12.808;2023-12-14T13:27:27;15.40;99.90
32839;DHT22;19182;41.820;12.808;2023-12-14T13:29:53;15.00;99.90
32839;DHT22;19182;41.820;12.808;2023-12-14T13:32:19;14.80;99.90
32839;DHT22;19182;41.820;12.808;2023-12-14T13:37:12;14.70;99.90
32839;DHT22;19182;41.820;12.808;2023-12-14T13:39:39;14.70;99.90
32839;DHT22;19182;41.820;12.808;2023-12-14T13:42:05;14.60;99.90
32839;DHT22;19182;41.820;12.808;2023-12-14T13:44:34;14.60;99.90
32839;DHT22;19182;41.820;12.808;2023-12-14T13:47:04;14.20;99.90
32839;DHT22;19182;41.820;12.808;2023-12-14T13:49:31;14.20;99.90
32839;DHT22;19182;41.820;12.808;2023-12-14T13:51:57;14.10;99.90
32839;DHT22;19182;41.820;12.808;2023-12-14T13:54:23;14.20;99.90
32839;DHT22;19182;41.820;12.808;2023-12-14T13:56:48;14.10;99.90
32839;DHT22;19182;41.820;12.808;2023-12-14T13:59:15;14.10;99.90
32839;DHT22;19182;41.820;12.808;2023-12-14T14:01:42;14.10;99.90
32839;DHT22;19182;41.820;12.808;2023-12-14T14:04:09;13.90;99.90
32839;DHT22;19182;41.820;12.808;2023-12-14T14:06:36;13.90;99.90
32839;DHT22;19182;41.820;12.808;2023-12-14T14:09:03;13.80;99.90
32839;DHT22;19182;41.820;12.808;2023-12-14T14:11:29;13.70;99.90
32839;DHT22;19182;41.820;12.808;2023-12-14T14:13:56;13.60;99.90
32839;DHT22;19182;41.820;12.808;2023-12-14T14:16:22;13.60;99.90
32839;DHT22;19182;41.820;12.808;2023-12-14T14:18:47;13.50;99.90
32839;DHT22;19182;41.820;12.808;2023-12-14T14:21:14;13.30;99.90
32839;DHT22;19182;41.820;12.808;2023-12-14T14:23:40;13.40;99.90
32839;DHT22;19182;41.820;12.808;2023-12-14T14:26:06;13.50;99.90
32839;DHT22;19182;41.820;12.808;2023-12-14T14:28:34;13.50;99.90
32839;DHT22;19182;41.820;12.808;2023-12-14T14:31:00;13.40;99.90
32839;DHT22;19182;41.820;12.808;2023-12-14T14:33:27;13.30;99.90
32839;DHT22;19182;41.820;12.808;2023-12-14T14:35:54;13.20;99.90
32839;DHT22;19182;41.820;12.808;2023-12-14T14:40:45;13.20;99.90
32839;DHT22;19182;41.820;12.808;2023-12-14T14:43:12;13.10;99.90
32839;DHT22;19182;41.820;12.808;2023-12-14T14:45:39;13.10;99.90
32839;DHT22;19182;41.820;12.808;2023-12-14T14:48:05;13.10;99.90
32839;DHT22;19182;41.820;12.808;2023-12-14T14:50:32;12.90;99.90
32839;DHT22;19182;41.820;12.808;2023-12-14T14:52:59;12.80;99.90
32839;DHT22;19182;41.820;12.808;2023-12-14T14:55:25;12.90;99.90
32839;DHT22;19182;41.820;12.808;2023-12-14T14:57:53;12.80;99.90
32839;DHT22;19182;41.820;12.808;2023-12-14T15:00:19;12.50;99.90
32839;DHT22;19182;41.820;12.808;2023-12-14T15:02:45;12.30;99.90
32839;DHT22;19182;41.820;12.808;2023-12-14T15:05:12;12.30;99.90
32839;DHT22;19182;41.820;12.808;2023-12-14T15:07:38;12.30;99.90
32839;DHT22;19182;41.820;12.808;2023-12-14T15:10:06;12.30;99.90
32839;DHT22;19182;41.820;12.808;2023-12-14T15:12:32;12.10;99.90
32839;DHT22;19182;41.820;12.808;2023-12-14T15:14:58;12.10;99.90
32839;DHT22;19182;41.820;12.808;2023-12-14T15:17:25;12.10;99.90
32839;DHT22;19182;41.820;12.808;2023-12-14T15:19:52;12.10;99.90
32839;DHT22;19182;41.820;12.808;2023-12-14T15:22:18;12.00;99.90
32839;DHT22;19182;41.820;12.808;2023-12-14T15:24:43;12.10;99.90
32839;DHT22;19182;41.820;12.808;2023-12-14T15:27:09;12.00;99.90